Terminal Aerodrome Forecast
Issued by NWS

Current Version | Previous Version | Text Only | Print | Product List | Glossary Off
Versions: 1 2 3 4 5 6 7 8 9 10 11 12 13 14 15 16 17 18 19 20 21 22

000
FTUS41 KILN 211100
TAFLUK
TAF
KLUK 211135Z 2112/2212 VRB03KT P6SM SKC
     FM212100 13004KT P6SM SCT250
     FM220400 00000KT P6SM SCT040 BKN250
      TEMPO 2210/2212 -RA BKN030=

USA.gov is the U.S. government's official web portal to all federal, state and local government web resources and services.